NSO weather

Scone Airport
New South Wales, Australia

Public forecast

Using degrees Celsius for public forecast. Weather courtesy of forecast.io.

METAR (pilot weather report)

Closest report is Tamworth Airport, 57.2 nm (106.0 km) N. Retrieved 2019/04/24 23:30 UTC (0 seconds ago):

YSTW 242330Z AUTO 17004KT 110V190 9999 // NCD 20/11 Q1022 RF00.0/000.0

TAF (pilot weather forecast)

Closest forecast is Tamworth Airport, 57.2 nm (106.0 km) N. Retrieved 2019/04/24 18:36 UTC (5 hours ago):

TAF TAF YSTW 241648Z 2418/2512 12006KT CAVOK FM242300 23008KT CAVOK FM251000 12005KT CAVOK